Time;durP1;ratioP1;P1;durP2;ratioP2;P2;SDS_P1;SDS_P2;PMS_P1;PMS_P2;Temp;Humidity;BMP_temperature;BMP_pressure;BME280_temperature;BME280_humidity;BME280_pressure;Samples;Min_cycle;Max_cycle;Signal;HPM_P1;HPM_P2
2022/02/17 00:01:44;;;;;;;9.88;5.68;;;;;;;6.76;83.96;98507.31;5094619;28;19942;-72
2022/02/17 00:04:14;;;;;;;12.20;6.40;;;;;;;6.80;83.75;98513.22;5094199;28;20052;-74
2022/02/17 00:06:43;;;;;;;12.07;5.57;;;;;;;6.79;83.93;98507.28;5093938;28;20040;-72
2022/02/17 00:09:13;;;;;;;14.30;6.43;;;;;;;6.73;83.89;98498.03;5093877;28;20268;-73
2022/02/17 00:11:42;;;;;;;14.13;6.20;;;;;;;6.74;84.34;98494.63;5094194;28;20044;-74
2022/02/17 00:14:11;;;;;;;11.40;6.80;;;;;;;6.77;83.70;98487.91;5093743;28;20577;-74
2022/02/17 00:16:42;;;;;;;11.97;6.23;;;;;;;6.77;84.55;98490.44;5093785;28;20409;-74
2022/02/17 00:19:11;;;;;;;12.15;6.00;;;;;;;6.67;83.84;98477.78;5093681;28;20048;-71
2022/02/17 00:21:40;;;;;;;11.23;6.37;;;;;;;6.78;84.05;98480.25;5093787;28;20554;-72
2022/02/17 00:24:09;;;;;;;10.98;6.75;;;;;;;6.75;84.03;98465.91;5093931;28;20284;-72
2022/02/17 00:26:38;;;;;;;13.30;7.10;;;;;;;6.75;83.92;98445.63;5094018;28;20036;-72
2022/02/17 00:29:07;;;;;;;10.60;6.30;;;;;;;6.71;84.27;98454.13;5093659;28;20036;-72
2022/02/17 00:31:36;;;;;;;13.18;6.55;;;;;;;6.72;83.74;98444.78;5092725;28;20036;-72
2022/02/17 00:34:10;;;;;;;11.52;6.50;;;;;;;6.68;83.61;98443.97;5093868;28;20048;-73
2022/02/17 00:36:40;;;;;;;10.98;5.88;;;;;;;6.62;84.06;98433.84;5095191;28;20047;-72
2022/02/17 00:39:09;;;;;;;12.67;6.97;;;;;;;6.64;84.00;98446.53;5097994;28;20041;-72
2022/02/17 00:41:38;;;;;;;12.20;6.47;;;;;;;6.59;83.79;98459.25;5097745;28;20044;-71
2022/02/17 00:44:13;;;;;;;12.02;6.80;;;;;;;6.58;84.25;98462.63;5096799;28;20113;-72
2022/02/17 00:46:43;;;;;;;12.90;6.50;;;;;;;6.54;83.80;98455.88;5097925;28;20048;-73
2022/02/17 00:49:13;;;;;;;12.10;7.00;;;;;;;6.60;83.82;98455.84;5098023;28;20054;-72
2022/02/17 00:51:42;;;;;;;12.70;6.47;;;;;;;6.64;83.95;98452.47;5096752;28;20052;-73
2022/02/17 00:54:11;;;;;;;13.48;6.88;;;;;;;6.68;84.21;98459.19;5097900;28;20444;-72
2022/02/17 00:56:45;;;;;;;12.07;6.32;;;;;;;6.72;84.12;98440.56;5097277;28;20044;-72
2022/02/17 00:59:14;;;;;;;13.32;6.70;;;;;;;6.77;83.76;98442.25;5096756;28;20457;-72
2022/02/17 01:01:46;;;;;;;12.40;6.72;;;;;;;6.78;83.86;98438.84;5096444;28;20070;-72
2022/02/17 01:04:18;;;;;;;12.65;6.13;;;;;;;6.78;83.83;98433.78;5096171;28;20044;-72
2022/02/17 01:06:47;;;;;;;12.30;7.03;;;;;;;6.79;84.18;98421.09;5096299;28;20044;-72
2022/02/17 01:09:16;;;;;;;12.73;7.00;;;;;;;6.77;84.10;98412.66;5096576;28;20159;-72
2022/02/17 01:11:45;;;;;;;14.52;6.47;;;;;;;6.81;84.26;98410.94;5095994;28;20284;-72
2022/02/17 01:14:14;;;;;;;14.47;6.37;;;;;;;6.84;84.30;98408.41;5096175;28;20048;-73
2022/02/17 01:16:43;;;;;;;16.50;7.03;;;;;;;6.86;84.10;98399.94;5095828;28;20094;-73
2022/02/17 01:19:19;;;;;;;13.35;7.38;;;;;;;6.88;84.49;98392.31;5096139;28;20048;-74
2022/02/17 01:21:50;;;;;;;12.88;6.32;;;;;;;6.87;84.46;98393.16;5096270;28;20134;-73
2022/02/17 01:24:19;;;;;;;;;;;;;;;6.90;84.46;98405.81;5079798;28;20051;-74
2022/02/17 01:26:49;;;;;;;12.15;6.07;;;;;;;6.66;83.88;98374.72;5096010;28;19969;-74
2022/02/17 01:29:19;;;;;;;9.88;5.57;;;;;;;6.94;84.41;98421.00;5097095;28;20535;-72
2022/02/17 01:31:48;;;;;;;10.60;6.30;;;;;;;6.95;83.98;98411.69;5097130;28;20032;-74
2022/02/17 01:34:21;;;;;;;13.00;6.35;;;;;;;6.98;84.08;98416.75;5095589;28;20055;-74
2022/02/17 01:36:58;;;;;;;11.80;6.38;;;;;;;6.99;84.40;98408.28;5096963;28;20070;-73
2022/02/17 01:39:30;;;;;;;11.43;6.13;;;;;;;6.94;83.91;98402.41;5095722;28;20490;-74
2022/02/17 01:41:59;;;;;;;11.98;6.13;;;;;;;6.89;83.80;98401.59;5095745;28;20066;-73
2022/02/17 01:44:28;;;;;;;13.43;6.97;;;;;;;6.85;83.57;98390.63;5095616;28;20051;-74
2022/02/17 01:47:08;;;;;;;12.52;6.80;;;;;;;6.73;83.40;98381.41;5096443;28;20051;-74
2022/02/17 01:49:44;;;;;;;11.55;6.30;;;;;;;6.78;84.07;98394.06;5095562;28;20131;-73
2022/02/17 01:52:14;;;;;;;11.30;6.07;;;;;;;6.79;84.41;98372.09;5095581;28;20063;-75
2022/02/17 01:54:45;;;;;;;;;;;;;;;6.78;84.24;98401.66;5096792;28;20059;-73
2022/02/17 01:57:18;;;;;;;10.75;6.05;;;;;;;6.72;84.20;98359.44;5095393;28;19920;-73
2022/02/17 01:59:54;;;;;;;;;;;;;;;6.78;84.63;98383.06;5095787;28;20040;-73
2022/02/17 02:02:39;;;;;;;12.27;5.78;;;;;;;6.80;84.17;98373.75;5096284;28;19920;-73
2022/02/17 02:05:11;;;;;;;12.23;5.68;;;;;;;6.82;84.32;98384.72;5096192;28;20472;-74
2022/02/17 02:07:41;;;;;;;11.00;6.47;;;;;;;6.82;83.70;98382.19;5078294;28;20105;-73
2022/02/17 02:10:20;;;;;;;12.82;6.65;;;;;;;6.81;83.72;98378.00;5095311;28;20453;-73
2022/02/17 02:12:49;;;;;;;13.80;6.75;;;;;;;6.74;84.14;98383.09;5094836;28;20036;-73
2022/02/17 02:15:44;;;;;;;11.27;6.00;;;;;;;6.72;84.12;98369.59;5095083;28;20062;-74
2022/02/17 02:18:16;;;;;;;11.90;5.95;;;;;;;6.59;84.05;98342.66;5094712;28;20218;-73
2022/02/17 02:20:54;;;;;;;13.35;7.00;;;;;;;6.69;84.09;98354.38;5094872;28;20067;-73
2022/02/17 02:23:43;;;;;;;11.23;6.25;;;;;;;6.65;84.92;98342.59;5095696;28;20047;-73
2022/02/17 02:26:13;;;;;;;12.30;7.20;;;;;;;6.60;84.65;98338.41;5094604;28;20135;-72
2022/02/17 02:28:43;;;;;;;13.25;6.65;;;;;;;6.59;84.62;98332.50;5094487;28;20138;-73
2022/02/17 02:31:11;;;;;;;13.70;7.25;;;;;;;6.56;84.46;98317.31;5095957;28;20478;-72
2022/02/17 02:33:43;;;;;;;12.93;6.23;;;;;;;6.50;85.09;98292.00;5094450;28;20035;-72
2022/02/17 02:36:13;;;;;;;13.13;6.95;;;;;;;6.47;84.97;98297.13;5094752;28;20109;-73
2022/02/17 02:38:59;;;;;;;12.25;6.28;;;;;;;6.50;84.61;98301.31;5094513;28;20052;-72
2022/02/17 02:41:43;;;;;;;10.40;6.13;;;;;;;6.49;85.37;98299.63;5077440;28;20052;-72
2022/02/17 02:44:12;;;;;;;11.13;6.47;;;;;;;6.49;85.10;98294.56;5094215;28;20036;-73
2022/02/17 02:46:48;;;;;;;13.90;6.95;;;;;;;6.50;85.57;98269.19;5095440;28;20131;-72
2022/02/17 02:49:18;;;;;;;12.73;7.15;;;;;;;6.48;85.64;98263.31;5094408;28;20048;-73
2022/02/17 02:51:49;;;;;;;10.70;6.40;;;;;;;6.46;85.71;98264.16;5095569;28;20470;-72
2022/02/17 02:54:27;;;;;;;10.30;6.00;;;;;;;6.47;86.04;98251.50;5094365;28;20047;-73
2022/02/17 02:56:56;;;;;;;10.87;5.30;;;;;;;6.47;85.47;98245.59;5093869;28;20055;-72
2022/02/17 02:59:25;;;;;;;11.77;6.55;;;;;;;6.45;85.58;98238.00;5094477;28;20095;-71
2022/02/17 03:01:54;;;;;;;10.73;5.88;;;;;;;6.41;85.77;98236.34;5093916;28;20068;-72
2022/02/17 03:04:23;;;;;;;8.87;4.53;;;;;;;6.51;85.80;98253.16;5094174;28;20071;-73
2022/02/17 03:06:53;;;;;;;9.77;5.18;;;;;;;6.50;85.79;98241.31;5094994;28;20044;-73
2022/02/17 03:09:24;;;;;;;10.63;6.03;;;;;;;6.48;85.92;98232.91;5095459;28;20116;-72
2022/02/17 03:11:53;;;;;;;;;;;;;;;6.45;86.21;98212.69;5094657;28;20048;-72
2022/02/17 03:14:23;;;;;;;12.95;5.70;;;;;;;6.33;86.46;98187.44;5093970;28;19924;-72
2022/02/17 03:16:53;;;;;;;12.10;6.28;;;;;;;6.33;86.52;98182.38;5093665;28;20489;-72
2022/02/17 03:19:22;;;;;;;14.50;6.53;;;;;;;6.29;86.72;98160.44;5093844;28;20463;-71
2022/02/17 03:21:53;;;;;;;11.23;5.65;;;;;;;6.29;86.69;98141.84;5093372;28;20043;-72
2022/02/17 03:24:25;;;;;;;9.85;5.03;;;;;;;6.30;87.08;98129.19;5094674;28;20051;-71
2022/02/17 03:26:54;;;;;;;10.17;5.80;;;;;;;6.29;86.86;98132.56;5093379;28;20043;-71
2022/02/17 03:29:23;;;;;;;12.15;6.05;;;;;;;6.32;86.95;98137.63;5093379;28;20083;-72
2022/02/17 03:31:53;;;;;;;9.88;5.30;;;;;;;6.37;86.88;98138.41;5093808;28;20040;-72
2022/02/17 03:34:25;;;;;;;10.10;5.10;;;;;;;6.40;86.90;98155.28;5093557;28;20047;-72
2022/02/17 03:36:56;;;;;;;10.00;5.85;;;;;;;6.41;86.83;98170.47;5094971;28;20417;-72
2022/02/17 03:39:25;;;;;;;11.13;5.22;;;;;;;6.42;87.31;98181.44;5094675;28;20486;-72
2022/02/17 03:42:07;;;;;;;10.25;5.40;;;;;;;6.43;87.31;98163.69;5093195;28;20060;-72
2022/02/17 03:44:38;;;;;;;8.73;5.00;;;;;;;6.45;87.36;98187.34;5093149;28;20089;-73
2022/02/17 03:47:16;;;;;;;10.05;5.05;;;;;;;6.45;87.09;98156.94;5093083;28;20080;-72
2022/02/17 03:49:58;;;;;;;10.40;4.75;;;;;;;6.46;87.41;98162.81;5093274;28;20097;-72
2022/02/17 03:52:32;;;;;;;9.80;5.65;;;;;;;6.46;87.64;98170.41;5094434;28;20503;-73
2022/02/17 03:55:15;;;;;;;8.93;5.13;;;;;;;6.44;87.94;98205.91;5093925;28;20069;-72
2022/02/17 03:57:49;;;;;;;10.90;5.63;;;;;;;6.42;87.62;98177.22;5094066;28;20052;-72
2022/02/17 04:00:24;;;;;;;12.23;6.25;;;;;;;6.43;87.99;98191.56;5094156;28;20059;-73
2022/02/17 04:02:56;;;;;;;9.20;5.22;;;;;;;6.41;87.65;98159.47;5092776;28;20044;-73
2022/02/17 04:05:30;;;;;;;11.20;5.20;;;;;;;6.36;87.57;98217.78;5092806;28;20502;-73
2022/02/17 04:08:10;;;;;;;10.30;5.13;;;;;;;6.34;88.28;98163.75;5092788;28;20044;-72
2022/02/17 04:10:43;;;;;;;9.65;5.40;;;;;;;6.34;87.87;98168.84;5092634;28;20589;-71
2022/02/17 04:13:20;;;;;;;10.25;5.60;;;;;;;6.33;88.29;98202.63;5092611;28;20056;-73
2022/02/17 04:15:51;;;;;;;10.20;5.85;;;;;;;6.33;88.07;98161.25;5093001;28;20113;-72
2022/02/17 04:18:31;;;;;;;12.43;5.47;;;;;;;6.36;88.68;98201.78;5092927;28;20044;-73
2022/02/17 04:21:12;;;;;;;9.45;5.07;;;;;;;6.18;88.42;98126.75;5093704;28;20058;-71
2022/02/17 04:23:54;;;;;;;11.85;5.70;;;;;;;6.35;88.49;98190.78;5093664;28;20047;-71
2022/02/17 04:26:28;;;;;;;7.60;4.45;;;;;;;6.37;88.52;98153.63;5092488;28;20126;-71
2022/02/17 04:29:00;;;;;;;9.70;5.00;;;;;;;6.34;88.78;98148.56;5093683;28;20075;-71
2022/02/17 04:31:34;;;;;;;9.63;5.53;;;;;;;6.27;88.29;98157.06;5092487;28;20135;-71
2022/02/17 04:34:03;;;;;;;8.00;4.40;;;;;;;6.38;88.64;98116.47;5093942;28;20044;-71
2022/02/17 04:36:32;;;;;;;10.15;5.32;;;;;;;6.36;88.91;98126.59;5093869;28;20036;-71
2022/02/17 04:39:02;;;;;;;9.37;5.20;;;;;;;6.38;89.12;98124.88;5092376;28;20089;-71
2022/02/17 04:44:22;;;;;;;8.40;5.13;;;;;;;6.41;88.85;98112.19;5092623;28;20059;-71
2022/02/17 04:46:51;;;;;;;9.82;5.45;;;;;;;6.40;89.20;98104.59;5092319;28;20060;-71
2022/02/17 04:49:21;;;;;;;9.32;4.95;;;;;;;6.43;88.85;98118.06;5093745;28;20134;-71
2022/02/17 04:51:50;;;;;;;;;;;;;;;6.46;89.32;98110.44;5093000;28;20132;-71
2022/02/17 04:54:21;;;;;;;9.00;4.70;;;;;;;6.48;89.24;98096.06;5093344;28;19920;-70
2022/02/17 04:56:50;;;;;;;8.68;4.82;;;;;;;6.47;88.83;98074.13;5092042;28;20048;-73
2022/02/17 04:59:21;;;;;;;10.40;4.90;;;;;;;6.46;89.06;98057.25;5093389;28;20127;-70
2022/02/17 05:01:50;;;;;;;8.43;4.50;;;;;;;6.46;89.20;98048.78;5093501;28;20040;-71
2022/02/17 05:04:34;;;;;;;10.73;5.80;;;;;;;6.43;89.05;98049.66;5093584;28;20131;-71
2022/02/17 05:07:06;;;;;;;11.30;5.15;;;;;;;6.44;88.88;98053.03;5092735;28;20481;-71
2022/02/17 05:09:37;;;;;;;10.07;4.85;;;;;;;6.41;89.01;98048.84;5092129;28;20048;-70
2022/02/17 05:12:07;;;;;;;10.10;4.88;;;;;;;6.45;88.86;98065.72;5092393;28;20070;-72
2022/02/17 05:14:37;;;;;;;11.02;6.13;;;;;;;6.43;89.26;98059.81;5091968;28;20071;-71
2022/02/17 05:17:09;;;;;;;10.10;5.47;;;;;;;6.46;88.94;98056.41;5093229;28;20048;-71
2022/02/17 05:19:38;;;;;;;8.55;5.30;;;;;;;6.46;88.71;98051.31;5092314;28;20070;-71
2022/02/17 05:22:33;;;;;;;10.85;5.32;;;;;;;6.43;89.49;98031.13;5085397;28;20130;-72
2022/02/17 05:25:15;;;;;;;8.70;5.40;;;;;;;6.43;89.07;98031.94;5097254;28;20480;-71
2022/02/17 05:27:54;;;;;;;7.90;4.93;;;;;;;6.50;89.44;98031.00;5096981;28;20101;-72
2022/02/17 05:30:47;;;;;;;7.90;4.15;;;;;;;6.43;89.08;98011.66;5096887;28;20066;-70
2022/02/17 05:33:35;;;;;;;;;;;;;;;6.52;89.49;98025.94;5097456;28;20044;-71
2022/02/17 05:36:25;;;;;;;11.98;5.00;;;;;;;6.50;89.56;98003.13;5075313;28;19926;-71
2022/02/17 05:39:19;;;;;;;9.23;4.65;;;;;;;6.47;89.32;97987.97;5095696;28;20048;-72
2022/02/17 05:41:56;;;;;;;10.50;4.75;;;;;;;6.45;89.25;97966.06;5096651;28;20048;-73
2022/02/17 05:44:25;;;;;;;11.32;5.32;;;;;;;6.44;89.18;97947.47;5078871;28;20566;-72
2022/02/17 05:46:55;;;;;;;9.93;4.97;;;;;;;6.43;89.07;97935.66;5096566;28;20101;-72
2022/02/17 05:49:24;;;;;;;10.02;4.28;;;;;;;6.39;89.19;97928.97;5096489;28;20089;-73
2022/02/17 05:51:55;;;;;;;11.10;5.18;;;;;;;6.40;89.61;97930.66;5096853;28;20052;-72
2022/02/17 05:54:24;;;;;;;11.13;5.23;;;;;;;6.40;89.75;97920.50;5096421;28;20089;-72
2022/02/17 05:56:53;;;;;;;10.93;5.53;;;;;;;6.39;88.92;97918.81;5095975;28;20055;-71
2022/02/17 05:59:24;;;;;;;;;;;;;;;6.39;88.94;97928.97;5095690;28;20036;-72
2022/02/17 06:01:53;;;;;;;9.02;4.82;;;;;;;6.38;89.68;97921.38;5096571;28;19924;-72
2022/02/17 06:04:22;;;;;;;10.20;5.00;;;;;;;6.39;89.35;97928.97;5096225;28;20040;-72
2022/02/17 06:06:52;;;;;;;9.82;5.22;;;;;;;6.40;89.63;97920.50;5096758;28;20052;-73
2022/02/17 06:09:21;;;;;;;9.25;4.90;;;;;;;6.40;89.47;97900.25;5096388;28;20102;-72
2022/02/17 06:11:50;;;;;;;11.60;5.67;;;;;;;6.40;89.53;97900.25;5096437;28;20063;-73
2022/02/17 06:14:19;;;;;;;9.80;5.90;;;;;;;6.43;89.77;97910.31;5095983;28;20040;-71
2022/02/17 06:16:49;;;;;;;6.87;3.73;;;;;;;6.45;89.32;97918.75;5096309;28;20071;-72
2022/02/17 06:19:19;;;;;;;12.50;5.75;;;;;;;6.47;89.08;97909.44;5095875;28;20300;-71
2022/02/17 06:21:48;;;;;;;9.53;5.33;;;;;;;6.42;89.66;97898.53;5096102;28;20494;-72
2022/02/17 06:24:17;;;;;;;10.17;5.10;;;;;;;6.53;89.88;97901.75;5095804;28;20284;-71
2022/02/17 06:26:46;;;;;;;8.05;4.25;;;;;;;6.54;89.69;97915.25;5094584;28;20443;-73
2022/02/17 06:29:16;;;;;;;11.52;5.70;;;;;;;6.54;89.30;97902.59;5094743;28;20055;-70
2022/02/17 06:31:46;;;;;;;10.48;5.00;;;;;;;6.55;89.65;97884.81;5095994;28;20075;-73
2022/02/17 06:34:17;;;;;;;11.13;4.82;;;;;;;6.61;89.37;97884.75;5077313;28;20051;-72
2022/02/17 06:36:48;;;;;;;9.40;4.78;;;;;;;6.70;89.54;97899.81;5095651;28;20518;-72
2022/02/17 06:39:17;;;;;;;8.93;4.60;;;;;;;6.75;89.54;97910.72;5095797;28;20040;-71
2022/02/17 06:41:45;;;;;;;9.00;5.03;;;;;;;6.82;89.41;97892.88;5094818;28;20052;-71
2022/02/17 06:44:15;;;;;;;9.02;4.70;;;;;;;6.84;89.42;97888.66;5095406;28;20051;-72
2022/02/17 06:46:44;;;;;;;5.45;3.78;;;;;;;6.87;88.70;97891.13;5094490;28;20482;-71
2022/02/17 06:49:13;;;;;;;7.00;3.43;;;;;;;6.87;88.89;97897.03;5095627;28;20375;-73
2022/02/17 06:51:43;;;;;;;8.20;3.75;;;;;;;6.85;88.62;97895.38;5095427;28;20119;-72
2022/02/17 06:54:12;;;;;;;9.45;4.03;;;;;;;6.85;88.24;97888.63;5094478;28;20083;-71
2022/02/17 06:56:45;;;;;;;8.45;4.25;;;;;;;6.90;88.48;97891.94;5095185;28;20044;-71
2022/02/17 06:59:13;;;;;;;7.00;4.07;;;;;;;6.90;87.92;97891.94;5095415;28;20055;-70
2022/02/17 07:01:42;;;;;;;8.97;4.53;;;;;;;6.90;87.75;97902.06;5095287;28;20066;-70
2022/02/17 07:04:12;;;;;;;10.77;4.75;;;;;;;6.92;87.49;97925.69;5094919;28;20774;-71
2022/02/17 07:06:43;;;;;;;10.43;4.43;;;;;;;6.88;87.94;97928.31;5095539;28;20044;-72
2022/02/17 07:09:12;;;;;;;6.88;3.65;;;;;;;6.83;87.04;97945.28;5095000;28;20046;-72
2022/02/17 07:11:41;;;;;;;9.67;4.33;;;;;;;6.82;87.45;97953.72;5095216;28;20119;-72
2022/02/17 07:14:10;;;;;;;8.20;4.83;;;;;;;6.72;86.93;97925.97;5094860;28;20341;-72
2022/02/17 07:16:39;;;;;;;7.80;4.17;;;;;;;6.75;86.73;97932.69;5094776;28;20273;-72
2022/02/17 07:19:08;;;;;;;6.82;4.10;;;;;;;6.72;86.71;97925.97;5095009;28;20284;-71
2022/02/17 07:21:36;;;;;;;7.33;4.23;;;;;;;6.73;86.76;97939.50;5094636;28;20067;-73
2022/02/17 07:24:08;;;;;;;7.43;4.30;;;;;;;6.78;86.78;97947.03;5094800;28;20555;-72
2022/02/17 07:26:37;;;;;;;11.57;5.20;;;;;;;6.82;86.75;97923.31;5094680;28;20139;-72
2022/02/17 07:29:06;;;;;;;10.07;5.05;;;;;;;6.85;86.22;97910.59;5094657;28;20048;-73
2022/02/17 07:31:34;;;;;;;8.20;4.33;;;;;;;6.86;86.39;97915.66;5094555;28;20512;-72
2022/02/17 07:34:03;;;;;;;8.73;4.68;;;;;;;6.86;86.21;97918.19;5093926;28;20051;-73
2022/02/17 07:36:33;;;;;;;8.52;5.03;;;;;;;6.89;86.03;97929.97;5093012;28;20508;-71
2022/02/17 07:39:02;;;;;;;9.95;4.88;;;;;;;6.91;86.53;97913.06;5094285;28;20489;-71
2022/02/17 07:41:36;;;;;;;8.93;4.68;;;;;;;6.93;85.69;97908.78;5094752;28;20093;-73
2022/02/17 07:44:07;;;;;;;8.50;4.75;;;;;;;7.13;85.67;97899.16;5094171;28;20098;-72
2022/02/17 07:46:37;;;;;;;8.88;4.97;;;;;;;7.42;85.75;97891.91;5094072;28;20054;-72
2022/02/17 07:49:06;;;;;;;8.15;4.57;;;;;;;7.67;86.01;97893.19;5094159;28;20032;-71
2022/02/17 07:51:35;;;;;;;10.50;5.30;;;;;;;7.60;86.14;97895.84;5094188;28;20036;-71
2022/02/17 07:54:04;;;;;;;8.88;4.65;;;;;;;7.49;84.79;97883.34;5094270;28;20285;-72
2022/02/17 07:56:34;;;;;;;11.00;4.70;;;;;;;7.44;85.00;97880.03;5094242;28;20040;-72
2022/02/17 07:59:06;;;;;;;9.30;5.38;;;;;;;7.42;84.91;97869.06;5060862;28;20060;-72
2022/02/17 08:01:37;;;;;;;8.98;4.55;;;;;;;7.39;85.19;97857.28;5094220;28;20486;-71
2022/02/17 08:04:05;;;;;;;;;;;;;;;7.40;84.60;97864.03;5090582;28;20036;-72
2022/02/17 08:06:35;;;;;;;11.10;5.30;;;;;;;7.42;85.15;97859.78;5092961;28;20267;-72
2022/02/17 08:09:04;;;;;;;10.60;4.85;;;;;;;7.67;84.47;97862.72;5093972;28;20269;-72
2022/02/17 08:11:34;;;;;;;6.27;3.63;;;;;;;7.93;84.41;97865.59;5093848;28;20040;-74
2022/02/17 08:14:03;;;;;;;10.02;4.65;;;;;;;8.19;83.94;97862.53;5094070;28;20593;-73
2022/02/17 08:16:33;;;;;;;8.60;4.43;;;;;;;8.41;83.13;97868.03;5092793;28;20047;-73
2022/02/17 08:19:02;;;;;;;8.98;4.22;;;;;;;8.59;82.60;97843.03;5093771;28;20040;-72
2022/02/17 08:21:43;;;;;;;8.90;4.35;;;;;;;8.76;82.08;97845.19;5093774;28;20047;-71
2022/02/17 08:24:13;;;;;;;10.95;4.28;;;;;;;8.91;81.17;97842.28;5092473;28;20040;-72
2022/02/17 08:26:44;;;;;;;9.25;4.45;;;;;;;9.06;81.33;97833.47;5093095;28;20126;-73
2022/02/17 08:29:13;;;;;;;7.55;4.30;;;;;;;9.13;80.19;97818.00;5087217;28;20036;-73
2022/02/17 08:31:43;;;;;;;8.18;4.43;;;;;;;9.33;80.20;97818.31;5074248;28;20040;-73
2022/02/17 08:34:13;;;;;;;7.97;4.18;;;;;;;9.25;79.15;97774.44;5075673;28;20036;-73
2022/02/17 08:36:42;;;;;;;7.93;4.25;;;;;;;9.33;78.87;97797.97;5091099;28;20040;-73
2022/02/17 08:42:33;;;;;;;9.25;4.28;;;;;;;9.58;78.14;97807.50;5075593;28;20502;-74
2022/02/17 08:45:02;;;;;;;7.47;4.13;;;;;;;9.73;77.69;97791.81;5092302;28;20040;-74
2022/02/17 08:47:31;;;;;;;7.60;4.10;;;;;;;9.75;76.88;97787.50;5090747;28;20516;-74
2022/02/17 08:50:00;;;;;;;8.75;3.60;;;;;;;9.76;76.33;97781.53;5083305;28;20036;-72
2022/02/17 08:52:30;;;;;;;6.25;3.72;;;;;;;9.88;76.29;97771.00;5088878;28;20068;-74
2022/02/17 08:55:02;;;;;;;7.97;4.00;;;;;;;9.94;75.74;97770.81;5085851;28;20036;-72
2022/02/17 08:57:37;;;;;;;8.00;3.97;;;;;;;10.17;75.67;97763.38;5094418;28;20135;-74
2022/02/17 09:00:07;;;;;;;6.97;3.30;;;;;;;10.35;75.29;97767.91;5097475;28;20559;-73
2022/02/17 09:02:42;;;;;;;6.25;3.40;;;;;;;10.24;75.07;97762.31;5097635;28;20097;-72
2022/02/17 09:05:13;;;;;;;6.30;3.30;;;;;;;10.07;75.37;97721.16;5097372;28;20040;-71
2022/02/17 09:07:41;;;;;;;8.25;3.92;;;;;;;10.06;74.83;97714.38;5097147;28;20040;-72
2022/02/17 09:10:13;;;;;;;9.00;4.10;;;;;;;10.25;75.05;97704.50;5097494;28;20052;-73
2022/02/17 09:12:47;;;;;;;8.32;3.90;;;;;;;10.31;75.24;97691.56;5097219;28;20036;-73
2022/02/17 09:15:17;;;;;;;8.88;3.83;;;;;;;10.53;75.13;97692.56;5097059;28;20042;-72
2022/02/17 09:17:51;;;;;;;5.70;3.55;;;;;;;10.61;75.11;97681.19;5097490;28;20047;-73
2022/02/17 09:20:22;;;;;;;7.45;3.92;;;;;;;10.39;75.19;97687.88;5079674;28;20040;-73
2022/02/17 09:22:53;;;;;;;6.78;4.00;;;;;;;10.15;75.72;97685.28;5090381;28;20397;-73
2022/02/17 09:26:16;;;;;;;9.65;4.47;;;;;;;9.91;75.88;97681.75;5094222;28;20076;-72
2022/02/17 09:28:52;;;;;;;7.32;4.10;;;;;;;9.72;76.10;97676.34;5076516;28;20046;-73
2022/02/17 09:31:43;;;;;;;8.23;3.88;;;;;;;9.67;76.32;97667.19;5076813;28;20037;-73
2022/02/17 09:34:12;;;;;;;8.68;4.25;;;;;;;9.62;77.08;97656.31;5076711;28;20051;-72
2022/02/17 09:36:40;;;;;;;9.77;4.53;;;;;;;9.67;77.02;97674.84;5076615;28;20127;-72
2022/02/17 09:39:09;;;;;;;8.27;3.90;;;;;;;9.69;77.38;97698.53;5076514;28;20051;-72
2022/02/17 09:41:38;;;;;;;9.68;5.13;;;;;;;9.63;78.31;97708.88;5076382;28;20055;-73
2022/02/17 09:44:11;;;;;;;7.82;4.05;;;;;;;9.53;78.84;97732.94;5076219;28;20040;-72
2022/02/17 09:46:47;;;;;;;7.97;4.28;;;;;;;9.06;79.08;97684.19;5088383;28;20036;-72
2022/02/17 09:49:16;;;;;;;8.23;4.53;;;;;;;9.36;79.60;97766.50;5093984;28;20485;-72
2022/02/17 09:51:46;;;;;;;10.57;5.20;;;;;;;9.29;80.26;97778.56;5042350;28;20036;-73
2022/02/17 09:54:27;;;;;;;9.40;5.50;;;;;;;9.26;80.39;97801.53;5096346;28;20277;-71
2022/02/17 09:56:55;;;;;;;8.82;4.68;;;;;;;9.22;81.82;97936.53;5094768;28;20498;-73
2022/02/17 09:59:26;;;;;;;6.67;3.07;;;;;;;9.10;82.19;97876.59;5095139;28;20494;-70
2022/02/17 10:01:57;;;;;;;8.02;4.25;;;;;;;8.98;82.66;97831.09;5094970;28;20052;-71
2022/02/17 10:04:27;;;;;;;9.70;4.53;;;;;;;9.01;82.61;97795.41;5095413;28;20097;-71
2022/02/17 10:06:58;;;;;;;9.85;5.45;;;;;;;9.08;82.99;97801.19;5095786;28;20122;-72
2022/02/17 10:09:37;;;;;;;10.43;4.93;;;;;;;9.06;83.07;97782.56;5094395;28;20066;-70
2022/02/17 10:12:07;;;;;;;10.02;4.82;;;;;;;9.20;83.60;97806.81;5093398;28;20043;-71
2022/02/17 10:14:43;;;;;;;9.02;4.68;;;;;;;9.27;83.68;97803.22;5095942;28;20073;-70
2022/02/17 10:17:14;;;;;;;8.50;4.68;;;;;;;9.20;84.20;97816.97;5096040;28;20036;-71
2022/02/17 10:19:47;;;;;;;8.15;4.50;;;;;;;9.21;84.19;97823.72;5095926;28;20075;-71
2022/02/17 10:22:19;;;;;;;11.57;6.10;;;;;;;9.19;84.46;97805.13;5096236;28;20090;-73
2022/02/17 10:24:50;;;;;;;9.88;5.30;;;;;;;9.20;84.26;97821.22;5095989;28;20462;-72
2022/02/17 10:27:23;;;;;;;8.73;5.18;;;;;;;9.23;85.07;97847.44;5095833;28;20136;-72
2022/02/17 10:30:02;;;;;;;10.43;5.40;;;;;;;9.26;84.89;97854.97;5092864;28;20039;-70
2022/02/17 10:32:31;;;;;;;7.20;3.90;;;;;;;9.31;85.18;97870.97;5092981;28;20036;-70
2022/02/17 10:35:09;;;;;;;8.88;5.13;;;;;;;9.27;86.00;97892.31;5094768;28;20042;-73
2022/02/17 10:37:46;;;;;;;12.48;5.38;;;;;;;9.27;85.61;97884.66;5092917;28;20118;-70
2022/02/17 10:40:18;;;;;;;9.27;3.85;;;;;;;9.27;86.26;97915.22;5093454;28;20083;-72
2022/02/17 10:43:03;;;;;;;6.47;2.42;;;;;;;9.39;86.47;97926.81;5095448;28;20058;-70
2022/02/17 10:45:44;;;;;;;2.60;1.30;;;;;;;9.56;86.88;97895.81;5095212;28;20131;-71
2022/02/17 10:48:17;;;;;;;3.42;1.38;;;;;;;9.73;86.69;97878.41;5094399;28;20051;-71
2022/02/17 10:50:49;;;;;;;5.43;1.52;;;;;;;9.90;86.13;97795.56;5090396;28;20151;-71
2022/02/17 10:53:21;;;;;;;2.40;1.10;;;;;;;10.66;86.32;97773.72;5095886;28;20067;-71
2022/02/17 10:55:55;;;;;;;2.35;1.17;;;;;;;11.38;85.41;97784.94;5094087;28;20059;-71
2022/02/17 10:58:27;;;;;;;2.15;1.20;;;;;;;11.91;84.87;97819.69;5095437;28;20118;-71
2022/02/17 11:01:00;;;;;;;2.58;1.10;;;;;;;12.26;83.96;97817.56;5095468;28;20036;-71
2022/02/17 11:03:32;;;;;;;2.70;1.13;;;;;;;12.55;82.87;97810.44;5094097;28;20128;-72
2022/02/17 11:06:11;;;;;;;1.85;1.00;;;;;;;12.73;81.34;97798.66;5095286;28;20151;-72
2022/02/17 11:08:43;;;;;;;2.15;0.98;;;;;;;13.07;79.51;97799.00;5061020;28;20048;-72
2022/02/17 11:11:14;;;;;;;1.55;0.85;;;;;;;13.33;77.73;97801.31;5095496;28;20493;-74
2022/02/17 11:13:45;;;;;;;1.80;1.17;;;;;;;13.59;75.86;97794.25;5095037;28;20048;-74
2022/02/17 11:16:16;;;;;;;1.20;0.85;;;;;;;13.72;73.83;97782.56;5095186;28;20048;-75
2022/02/17 11:18:50;;;;;;;3.08;0.82;;;;;;;13.81;72.29;97769.34;5095925;28;20044;-72
2022/02/17 11:21:19;;;;;;;1.95;0.85;;;;;;;14.05;70.96;97776.78;5094690;28;20067;-72
2022/02/17 11:23:48;;;;;;;2.00;0.90;;;;;;;14.14;69.06;97801.19;5095564;28;20055;-73
2022/02/17 11:26:22;;;;;;;1.60;0.90;;;;;;;14.36;68.14;97794.19;5095387;28;20048;-74
2022/02/17 11:28:59;;;;;;;1.65;0.80;;;;;;;14.70;66.71;97781.47;5095719;28;20052;-72
2022/02/17 11:31:29;;;;;;;1.38;0.75;;;;;;;14.87;65.04;97761.81;5094085;28;20032;-74
2022/02/17 11:33:59;;;;;;;5.13;1.33;;;;;;;14.45;64.78;97745.00;5095373;28;20448;-72
2022/02/17 11:36:30;;;;;;;;;;;;;;;14.28;64.69;97767.19;5095651;28;20432;-72
2022/02/17 11:39:05;;;;;;;1.48;0.60;;;;;;;14.17;64.31;97760.00;5095473;28;20377;-74
2022/02/17 11:41:36;;;;;;;1.15;0.68;;;;;;;13.90;64.64;97761.25;5096081;28;20398;-74
2022/02/17 11:44:18;;;;;;;3.88;0.82;;;;;;;13.62;65.23;97776.19;5096029;28;20124;-74
2022/02/17 11:46:56;;;;;;;1.73;0.80;;;;;;;13.44;65.74;97773.50;5096047;28;20047;-73
2022/02/17 11:49:49;;;;;;;1.33;0.68;;;;;;;13.42;64.25;97785.56;5094568;28;20390;-73
2022/02/17 11:52:21;;;;;;;2.03;0.90;;;;;;;13.29;64.14;97789.53;5094087;28;20044;-71
2022/02/17 11:55:13;;;;;;;1.23;0.75;;;;;;;13.13;63.70;97787.66;5032359;28;20397;-73
2022/02/17 11:57:43;;;;;;;1.40;0.65;;;;;;;12.98;63.25;97796.78;5091398;28;20032;-74
2022/02/17 12:00:31;;;;;;;0.95;0.70;;;;;;;13.02;63.10;97806.00;5044197;28;20044;-74
2022/02/17 12:03:02;;;;;;;2.50;0.82;;;;;;;13.08;62.88;97792.97;5086234;28;20516;-77
2022/02/17 12:05:32;;;;;;;1.65;1.13;;;;;;;13.04;62.77;97803.38;5090180;28;20040;-75
2022/02/17 12:08:24;;;;;;;2.75;1.02;;;;;;;13.54;60.87;97814.09;5093895;28;20111;-73
2022/02/17 12:10:57;;;;;;;1.67;0.65;;;;;;;14.15;57.61;97790.03;5083467;28;20044;-74